createdAt,value
2023-02-24T00:02:24.726Z,10.50
2023-02-24T00:07:56.185Z,10.50
2023-02-24T00:10:47.974Z,10.40
2023-02-24T00:13:39.763Z,10.30
2023-02-24T00:19:24.472Z,10.20
2023-02-24T00:22:20.412Z,10.20
2023-02-24T00:27:55.880Z,10.00
2023-02-24T00:30:47.682Z,10.00
2023-02-24T00:33:40.055Z,10.10
2023-02-24T00:36:34.073Z,10.10
2023-02-24T00:39:28.624Z,10.10
2023-02-24T00:42:20.669Z,10.20
2023-02-24T00:45:15.638Z,10.20
2023-02-24T00:48:08.653Z,10.20
2023-02-24T00:51:03.276Z,10.10
2023-02-24T00:53:57.862Z,10.00
2023-02-24T00:56:51.550Z,10.00
2023-02-24T01:02:26.899Z,9.90
2023-02-24T01:08:05.959Z,9.80
2023-02-24T01:11:19.516Z,9.90
2023-02-24T01:16:53.871Z,9.80
2023-02-24T01:19:52.236Z,9.80
2023-02-24T01:22:43.676Z,9.80
2023-02-24T01:28:26.265Z,9.60
2023-02-24T01:31:20.693Z,9.60
2023-02-24T01:39:41.284Z,9.50
2023-02-24T01:48:05.558Z,9.40
2023-02-24T01:50:58.855Z,9.40
2023-02-24T01:56:39.530Z,9.50
2023-02-24T02:02:11.224Z,9.50
2023-02-24T02:05:05.793Z,9.50
2023-02-24T02:07:58.477Z,9.50
2023-02-24T02:10:50.002Z,9.50
2023-02-24T02:13:44.100Z,9.40
2023-02-24T02:16:51.499Z,9.40
2023-02-24T02:20:13.024Z,9.40
2023-02-24T02:26:11.935Z,9.20
2023-02-24T02:29:23.093Z,9.20
2023-02-24T02:32:53.512Z,9.20
2023-02-24T02:38:43.404Z,9.40
2023-02-24T02:41:38.599Z,9.40
2023-02-24T02:44:33.644Z,9.40
2023-02-24T02:54:15.201Z,9.30
2023-02-24T02:59:53.623Z,9.20
2023-02-24T03:02:48.026Z,9.20
2023-02-24T03:08:55.766Z,9.20
2023-02-24T03:11:53.307Z,9.20
2023-02-24T03:17:31.523Z,9.10
2023-02-24T03:20:29.383Z,8.90
2023-02-24T03:23:25.763Z,8.80
2023-02-24T03:26:24.642Z,8.70
2023-02-24T03:29:21.462Z,8.80
2023-02-24T03:32:16.243Z,8.80
2023-02-24T03:35:11.265Z,8.80
2023-02-24T03:38:04.271Z,8.80
2023-02-24T03:40:56.318Z,8.70
2023-02-24T03:46:34.239Z,8.50
2023-02-24T03:52:12.817Z,8.50
2023-02-24T03:58:13.018Z,8.50
2023-02-24T04:01:09.692Z,8.50
2023-02-24T04:04:06.250Z,8.50
2023-02-24T04:07:20.496Z,8.50
2023-02-24T04:10:13.008Z,8.50
2023-02-24T04:13:10.379Z,8.50
2023-02-24T04:16:06.021Z,8.50
2023-02-24T04:21:48.950Z,8.50
2023-02-24T04:27:22.433Z,8.50
2023-02-24T04:30:16.901Z,8.40
2023-02-24T04:35:50.693Z,8.50
2023-02-24T04:38:43.766Z,8.50
2023-02-24T04:41:36.488Z,8.50
2023-02-24T04:47:14.133Z,8.60
2023-02-24T04:52:45.410Z,8.50
2023-02-24T04:55:40.383Z,8.50
2023-02-24T05:01:20.828Z,8.50
2023-02-24T05:04:14.326Z,8.50
2023-02-24T05:07:06.270Z,8.50
2023-02-24T05:09:58.748Z,8.50
2023-02-24T05:12:50.303Z,8.50
2023-02-24T05:15:44.745Z,8.50
2023-02-24T05:21:36.332Z,8.50
2023-02-24T05:24:29.819Z,8.50
2023-02-24T05:27:22.276Z,8.50
2023-02-24T05:33:00.057Z,8.40
2023-02-24T05:38:40.109Z,8.30
2023-02-24T05:41:34.858Z,8.30
2023-02-24T05:44:28.254Z,8.30
2023-02-24T05:47:21.408Z,8.20
2023-02-24T05:50:17.990Z,8.20
2023-02-24T05:55:55.286Z,8.20
2023-02-24T05:58:46.825Z,8.10
2023-02-24T06:01:42.185Z,8.10
2023-02-24T06:04:48.253Z,8.10
2023-02-24T06:07:39.729Z,8.10
2023-02-24T06:10:36.367Z,8.00
2023-02-24T06:13:29.300Z,7.90
2023-02-24T06:19:01.716Z,7.90
2023-02-24T06:21:54.210Z,7.90
2023-02-24T06:27:27.122Z,8.00
2023-02-24T06:45:00.156Z,8.10
2023-02-24T06:47:51.762Z,8.30
2023-02-24T06:50:46.280Z,8.30
2023-02-24T06:56:24.240Z,8.20
2023-02-24T07:05:46.068Z,8.20
2023-02-24T07:08:37.260Z,8.20
2023-02-24T07:14:22.947Z,8.40
2023-02-24T07:17:14.907Z,8.30
2023-02-24T07:20:11.404Z,8.30
2023-02-24T07:41:42.852Z,8.40
2023-02-24T07:44:34.126Z,8.40
2023-02-24T07:50:08.076Z,8.40
2023-02-24T07:55:42.028Z,8.50
2023-02-24T07:58:34.476Z,8.60
2023-02-24T08:01:28.441Z,8.70
2023-02-24T08:04:23.221Z,8.80
2023-02-24T08:07:14.820Z,8.90
2023-02-24T08:10:18.951Z,8.90
2023-02-24T08:16:21.244Z,9.10
2023-02-24T08:19:17.023Z,9.10
2023-02-24T08:22:20.290Z,9.10
2023-02-24T08:25:15.388Z,9.10
2023-02-24T08:30:48.347Z,9.10
2023-02-24T08:33:46.489Z,9.20
2023-02-24T08:36:39.664Z,9.30
2023-02-24T08:39:34.217Z,9.30
2023-02-24T08:42:27.690Z,9.40
2023-02-24T08:45:19.024Z,9.50
2023-02-24T08:48:12.212Z,9.50
2023-02-24T08:51:06.798Z,9.60
2023-02-24T08:54:00.648Z,9.70
2023-02-24T08:56:53.765Z,9.80
2023-02-24T08:59:50.364Z,9.90
2023-02-24T09:05:35.244Z,10.00
2023-02-24T09:08:31.761Z,10.10
2023-02-24T09:11:34.509Z,10.10
2023-02-24T09:14:29.436Z,10.30
2023-02-24T09:17:23.328Z,10.30
2023-02-24T09:20:25.911Z,10.40
2023-02-24T09:26:36.319Z,10.60
2023-02-24T09:29:34.832Z,10.70
2023-02-24T09:38:06.742Z,11.00
2023-02-24T09:41:13.785Z,11.10
2023-02-24T09:46:58.687Z,11.20
2023-02-24T09:52:42.057Z,11.30
2023-02-24T09:55:38.752Z,11.40
2023-02-24T09:59:03.748Z,11.50
2023-02-24T10:02:01.764Z,11.50
2023-02-24T10:05:08.255Z,11.70
2023-02-24T10:08:01.227Z,11.80
2023-02-24T10:11:03.292Z,11.90
2023-02-24T10:14:03.448Z,12.10
2023-02-24T10:16:56.533Z,12.20
2023-02-24T10:19:50.272Z,12.30
2023-02-24T10:23:01.645Z,12.40
2023-02-24T10:26:06.674Z,12.50
2023-02-24T10:29:08.713Z,12.60
2023-02-24T10:32:11.678Z,12.80
2023-02-24T10:35:07.532Z,12.90
2023-02-24T10:38:05.669Z,13.10
2023-02-24T10:40:58.368Z,13.20
2023-02-24T10:44:23.894Z,13.30
2023-02-24T10:47:25.134Z,13.40
2023-02-24T10:50:26.921Z,13.50
2023-02-24T10:56:32.992Z,13.70
2023-02-24T10:59:46.238Z,13.80
2023-02-24T11:02:55.774Z,13.90
2023-02-24T11:06:09.419Z,13.90
2023-02-24T11:09:40.030Z,14.10
2023-02-24T11:18:30.250Z,14.40
2023-02-24T11:21:34.817Z,14.50
2023-02-24T11:27:51.225Z,14.80
2023-02-24T11:30:57.349Z,14.90
2023-02-24T11:34:14.787Z,14.80
2023-02-24T11:43:37.334Z,15.00
2023-02-24T11:47:00.718Z,14.90
2023-02-24T11:52:56.669Z,15.00
2023-02-24T11:56:11.424Z,15.00
2023-02-24T11:59:46.234Z,14.90
2023-02-24T12:05:41.458Z,14.90
2023-02-24T12:09:08.433Z,15.00
2023-02-24T12:12:26.549Z,15.10
2023-02-24T12:15:43.183Z,15.30
2023-02-24T12:18:52.215Z,15.30
2023-02-24T12:21:56.045Z,15.40
2023-02-24T12:25:11.474Z,15.40
2023-02-24T12:28:22.379Z,15.40
2023-02-24T12:31:33.744Z,15.60
2023-02-24T12:34:46.175Z,15.70
2023-02-24T12:38:13.650Z,15.80
2023-02-24T12:41:39.264Z,15.90
2023-02-24T12:50:55.445Z,16.00
2023-02-24T12:56:47.346Z,16.30
2023-02-24T12:59:51.104Z,16.30
2023-02-24T13:10:42.439Z,16.50
2023-02-24T13:16:42.176Z,16.70
2023-02-24T13:23:30.478Z,17.00
2023-02-24T13:32:22.327Z,17.40
2023-02-24T13:35:39.091Z,17.60
2023-02-24T13:41:49.768Z,17.90
2023-02-24T13:45:02.250Z,18.00
2023-02-24T13:48:15.028Z,18.20
2023-02-24T13:51:28.206Z,18.20
2023-02-24T13:58:13.721Z,18.30
2023-02-24T14:17:47.138Z,19.20
2023-02-24T14:21:02.985Z,19.30
2023-02-24T14:24:11.208Z,19.20
2023-02-24T14:30:10.435Z,19.00
2023-02-24T14:33:14.743Z,19.00
2023-02-24T14:36:26.826Z,18.90
2023-02-24T14:39:37.035Z,18.70
2023-02-24T14:46:23.153Z,18.60
2023-02-24T14:49:37.558Z,18.50
2023-02-24T14:52:58.634Z,18.30
2023-02-24T14:56:08.167Z,18.30
2023-02-24T14:59:12.373Z,18.20
2023-02-24T15:02:25.718Z,17.60
2023-02-24T15:05:27.352Z,17.10
2023-02-24T15:08:48.566Z,16.80
2023-02-24T15:26:00.441Z,16.50
2023-02-24T15:29:17.275Z,16.40
2023-02-24T15:32:20.301Z,16.20
2023-02-24T15:35:27.137Z,16.10
2023-02-24T15:38:37.772Z,15.90
2023-02-24T15:41:59.037Z,15.70
2023-02-24T15:45:40.197Z,15.60
2023-02-24T15:49:07.789Z,15.60
2023-02-24T15:52:41.023Z,15.50
2023-02-24T15:56:06.393Z,15.40
2023-02-24T15:59:32.515Z,15.50
2023-02-24T16:02:56.864Z,15.50
2023-02-24T16:06:23.482Z,15.50
2023-02-24T16:09:53.330Z,15.50
2023-02-24T16:13:17.566Z,15.40
2023-02-24T16:16:45.807Z,15.40
2023-02-24T16:20:11.704Z,15.30
2023-02-24T16:23:41.993Z,15.20
2023-02-24T16:27:08.362Z,15.20
2023-02-24T16:30:36.368Z,15.20
2023-02-24T16:37:20.521Z,15.00
2023-02-24T17:11:03.044Z,14.80
2023-02-24T17:14:33.401Z,14.60
2023-02-24T17:17:59.543Z,14.70
2023-02-24T17:21:27.427Z,14.60
2023-02-24T17:28:11.729Z,14.40
2023-02-24T17:31:39.055Z,14.30
2023-02-24T17:35:02.707Z,14.30
2023-02-24T17:38:31.238Z,14.20
2023-02-24T17:41:57.871Z,14.10
2023-02-24T17:45:27.712Z,14.00
2023-02-24T17:48:54.811Z,13.90
2023-02-24T17:52:18.244Z,13.90
2023-02-24T18:01:55.165Z,13.70
2023-02-24T18:05:23.112Z,13.60
2023-02-24T18:08:50.252Z,13.60
2023-02-24T18:15:09.905Z,13.40
2023-02-24T18:18:37.370Z,13.40
2023-02-24T18:22:03.184Z,13.40
2023-02-24T18:25:26.882Z,13.30
2023-02-24T18:28:50.224Z,13.30
2023-02-24T18:35:38.411Z,13.20
2023-02-24T18:39:02.070Z,13.20
2023-02-24T18:42:27.304Z,13.10
2023-02-24T18:45:39.191Z,13.10
2023-02-24T18:48:46.461Z,13.10
2023-02-24T18:52:06.298Z,13.10
2023-02-24T18:55:19.911Z,13.10
2023-02-24T18:58:25.711Z,13.10
2023-02-24T19:01:30.479Z,13.10
2023-02-24T19:04:42.705Z,13.10
2023-02-24T19:07:56.978Z,13.00
2023-02-24T19:11:09.364Z,13.00
2023-02-24T19:14:16.471Z,12.90
2023-02-24T19:17:18.118Z,12.90
2023-02-24T19:20:19.066Z,12.90
2023-02-24T19:23:26.597Z,13.00
2023-02-24T19:26:36.959Z,12.90
2023-02-24T19:29:43.469Z,12.90
2023-02-24T19:32:43.005Z,12.90
2023-02-24T19:35:53.221Z,12.80
2023-02-24T19:39:03.333Z,12.80
2023-02-24T19:42:04.774Z,12.70
2023-02-24T19:45:15.342Z,12.70
2023-02-24T19:48:16.757Z,12.60
2023-02-24T19:51:22.698Z,12.50
2023-02-24T19:54:24.730Z,12.50
2023-02-24T19:57:29.388Z,12.40
2023-02-24T20:00:53.294Z,12.40
2023-02-24T20:03:47.550Z,12.30
2023-02-24T20:09:37.675Z,12.30
2023-02-24T20:12:43.625Z,12.20
2023-02-24T20:15:55.957Z,12.30
2023-02-24T20:19:03.721Z,12.30
2023-02-24T20:22:17.310Z,12.30
2023-02-24T20:25:21.841Z,12.30
2023-02-24T20:28:23.324Z,12.20
2023-02-24T20:31:19.030Z,12.30
2023-02-24T20:34:11.744Z,12.20
2023-02-24T20:37:05.368Z,12.20
2023-02-24T20:40:04.927Z,12.10
2023-02-24T20:43:25.896Z,12.10
2023-02-24T20:46:53.163Z,12.10
2023-02-24T20:50:16.515Z,12.10
2023-02-24T20:53:55.966Z,12.00
2023-02-24T20:56:49.398Z,11.90
2023-02-24T21:00:03.324Z,12.00
2023-02-24T21:02:56.653Z,11.90
2023-02-24T21:06:08.873Z,11.90
2023-02-24T21:09:02.147Z,11.90
2023-02-24T21:12:01.959Z,11.90
2023-02-24T21:15:03.429Z,11.90
2023-02-24T21:18:01.240Z,11.80
2023-02-24T21:21:02.469Z,11.80
2023-02-24T21:24:03.903Z,11.80
2023-02-24T21:30:18.645Z,11.80
2023-02-24T21:33:26.360Z,11.70
2023-02-24T21:36:30.075Z,11.70
2023-02-24T21:45:54.270Z,11.60
2023-02-24T21:48:57.120Z,11.80
2023-02-24T21:52:09.188Z,11.60
2023-02-24T21:55:14.972Z,11.50
2023-02-24T21:58:17.742Z,11.50
2023-02-24T22:01:17.449Z,11.50
2023-02-24T22:04:24.735Z,11.50
2023-02-24T22:07:31.843Z,11.60
2023-02-24T22:10:39.510Z,11.60
2023-02-24T22:13:46.753Z,11.50
2023-02-24T22:17:13.510Z,11.50
2023-02-24T22:20:20.012Z,11.50
2023-02-24T22:23:18.328Z,11.50
2023-02-24T22:26:26.186Z,11.50
2023-02-24T22:29:30.852Z,11.40
2023-02-24T22:32:42.978Z,11.30
2023-02-24T22:35:57.099Z,11.40
2023-02-24T22:39:01.122Z,11.40
2023-02-24T22:42:10.044Z,11.40
2023-02-24T22:45:07.445Z,11.30
2023-02-24T22:48:26.635Z,11.50
2023-02-24T22:51:34.722Z,11.50
2023-02-24T22:54:46.534Z,11.40
2023-02-24T22:57:46.373Z,11.30
2023-02-24T23:00:53.938Z,11.20
2023-02-24T23:03:58.203Z,11.20
2023-02-24T23:06:59.296Z,11.20
2023-02-24T23:09:57.259Z,11.20
2023-02-24T23:12:49.239Z,11.20
2023-02-24T23:15:43.077Z,11.20
2023-02-24T23:18:37.351Z,11.20
2023-02-24T23:21:34.946Z,11.10
2023-02-24T23:24:26.700Z,11.20
2023-02-24T23:27:24.739Z,11.20
2023-02-24T23:30:22.357Z,11.20
2023-02-24T23:33:20.009Z,11.30
2023-02-24T23:36:14.844Z,11.30
2023-02-24T23:39:09.324Z,11.30
2023-02-24T23:42:01.630Z,11.40
2023-02-24T23:45:10.328Z,11.40
2023-02-24T23:47:57.714Z,11.40
2023-02-24T23:50:51.842Z,11.30
2023-02-24T23:53:46.421Z,11.30
2023-02-24T23:56:40.544Z,11.30
2023-02-24T23:59:35.182Z,11.30
